Time;durP1;ratioP1;P1;durP2;ratioP2;P2;SDS_P1;SDS_P2;PMS_P1;PMS_P2;Temp;Humidity;BMP_temperature;BMP_pressure;BME280_temperature;BME280_humidity;BME280_pressure;Samples;Min_cycle;Max_cycle;Signal;HPM_P1;HPM_P2
2023/07/13 00:02:20;;;;;;;;;;;22.00;77.30;;;21.39;nan;96234.75;4993177;28;19931;-89
2023/07/13 00:04:48;;;;;;;;;;;22.00;77.30;;;21.39;nan;96229.19;5009817;28;19921;-90
2023/07/13 00:07:19;;;;;;;;;;;22.00;77.20;;;21.39;nan;96231.97;4993409;28;19921;-90
2023/07/13 00:09:47;;;;;;;;;;;22.00;77.30;;;21.38;nan;96247.03;5009897;28;20112;-89
2023/07/13 00:12:28;;;;;;;;;;;22.00;77.20;;;21.38;nan;96235.91;4994899;28;19928;-89
2023/07/13 00:14:57;;;;;;;;;;;22.00;77.20;;;21.38;nan;96247.03;5013054;28;19921;-90
2023/07/13 00:17:25;;;;;;;;;;;22.00;77.20;;;21.37;nan;96236.25;5014105;28;20215;-89
2023/07/13 00:19:53;;;;;;;;;;;22.00;77.20;;;21.35;nan;96250.53;4996769;28;19922;-90
2023/07/13 00:22:21;;;;;;;;;;;22.00;77.20;;;21.35;nan;96239.38;4996302;28;19925;-90
2023/07/13 00:24:51;;;;;;;;;;;22.00;77.10;;;21.36;nan;96232.66;4996692;28;19927;-90
2023/07/13 00:27:19;;;;;;;;;;;22.00;77.20;;;21.33;nan;96227.78;4996393;28;19928;-90
2023/07/13 00:29:49;;;;;;;;;;;22.00;77.10;;;21.34;nan;96236.94;5013001;28;19928;-90
2023/07/13 00:32:17;;;;;;;;;;;22.00;77.20;;;21.33;nan;96235.28;4996265;28;19921;-89
2023/07/13 00:34:45;;;;;;;;;;;21.90;77.20;;;21.29;nan;96227.66;4996520;28;19922;-89
2023/07/13 00:37:13;;;;;;;;;;;22.00;77.20;;;21.30;nan;96229.25;4988135;28;20243;-90
2023/07/13 00:39:41;;;;;;;;;;;21.90;77.20;;;21.30;nan;96242.38;4977154;28;20249;-89
2023/07/13 00:42:09;;;;;;;;;;;21.90;77.20;;;21.28;nan;96239.09;4999913;28;19928;-90
2023/07/13 00:44:39;;;;;;;;;;;22.00;77.30;;;21.29;nan;96241.56;5012605;28;19921;-90
2023/07/13 00:47:08;;;;;;;;;;;21.90;77.30;;;21.27;nan;96234.69;5012720;28;19927;-90
2023/07/13 00:49:36;;;;;;;;;;;22.00;77.30;;;21.29;nan;96237.94;5012489;28;19921;-90
2023/07/13 00:52:06;;;;;;;;;;;21.90;77.30;;;21.29;nan;96235.16;4995941;28;19928;-90
2023/07/13 00:54:36;;;;;;;;;;;21.90;77.40;;;21.28;nan;96230.75;5013719;28;19928;-89
2023/07/13 00:57:05;;;;;;;;;;;21.90;77.30;;;21.27;nan;96229.13;5012885;28;19921;-90
2023/07/13 00:59:33;;;;;;;;;;;21.90;77.30;;;21.27;nan;96231.91;4996476;28;20209;-90
2023/07/13 01:02:02;;;;;;;;;;;21.90;77.30;;;21.25;nan;96225.84;4995804;28;19928;-90
2023/07/13 01:04:31;;;;;;;;;;;21.90;77.20;;;21.24;nan;96218.66;4996528;28;19922;-90
2023/07/13 01:06:59;;;;;;;;;;;21.90;77.30;;;21.25;nan;96223.06;4993896;28;19928;-90
2023/07/13 01:09:29;;;;;;;;;;;21.90;77.30;;;21.21;nan;96220.16;4976845;28;20121;-90
2023/07/13 01:11:58;;;;;;;;;;;21.90;77.10;;;21.21;nan;96230.50;4976312;28;19921;-91
2023/07/13 01:14:26;;;;;;;;;;;21.90;77.20;;;21.21;nan;96241.63;4992951;28;19922;-91
2023/07/13 01:16:54;;;;;;;;;;;21.80;77.10;;;21.19;nan;96238.38;4976652;28;19922;-91
2023/07/13 01:19:35;;;;;;;;;;;21.80;77.10;;;21.18;nan;96240.31;4976718;28;19932;-90
2023/07/13 01:22:08;;;;;;;;;;;21.80;77.00;;;21.18;nan;96242.28;4975565;28;19922;-91
2023/07/13 01:24:37;;;;;;;;;;;21.80;76.90;;;21.17;nan;96243.44;4976673;28;19922;-90
2023/07/13 01:27:06;;;;;;;;;;;21.80;76.90;;;21.14;nan;96242.97;4976587;28;19922;-89
2023/07/13 01:29:35;;;;;;;;;;;21.80;76.90;;;21.14;nan;96242.97;4976433;28;19926;-90
2023/07/13 01:32:03;;;;;;;;;;;21.80;76.80;;;21.13;nan;96244.13;4975938;28;20124;-90
2023/07/13 01:34:31;;;;;;;;;;;21.80;76.90;;;21.14;nan;96240.19;4976408;28;19928;-91
2023/07/13 01:36:59;;;;;;;;;;;21.80;76.90;;;21.13;nan;96238.56;4976351;28;19922;-91
2023/07/13 01:39:28;;;;;;;;;;;21.80;76.80;;;21.10;nan;96244.81;4992574;28;19922;-90
2023/07/13 01:41:56;;;;;;;;;;;21.80;76.70;;;21.10;nan;96244.00;4975653;28;19936;-91
2023/07/13 01:44:25;;;;;;;;;;;21.80;76.70;;;21.10;nan;96244.00;4992631;28;19928;-90
2023/07/13 01:46:54;;;;;;;;;;;21.70;76.70;;;21.09;nan;96240.41;4976250;28;19922;-90
2023/07/13 01:49:22;;;;;;;;;;;21.70;76.70;;;21.09;nan;96240.41;4976234;28;19921;-90
2023/07/13 01:51:51;;;;;;;;;;;21.70;76.80;;;21.09;nan;96234.84;4991787;28;19976;-91
2023/07/13 01:54:19;;;;;;;;;;;21.70;76.80;;;21.11;nan;96245.63;4976123;28;19928;-91
2023/07/13 01:56:48;;;;;;;;;;;21.70;76.80;;;21.10;nan;96246.78;4976037;28;19922;-90
2023/07/13 01:59:16;;;;;;;;;;;21.70;76.70;;;21.09;nan;96245.97;4976075;28;19922;-91
2023/07/13 02:01:44;;;;;;;;;;;21.70;76.80;;;21.10;nan;96244.00;4975496;28;19922;-91
2023/07/13 02:04:12;;;;;;;;;;;21.70;76.80;;;21.11;nan;96245.63;4976049;28;20090;-91
2023/07/13 02:06:40;;;;;;;;;;;21.70;76.90;;;21.08;nan;96244.34;4992094;28;19928;-89
2023/07/13 02:09:08;;;;;;;;;;;21.70;76.90;;;21.09;nan;96234.84;4975845;28;19928;-90
2023/07/13 02:11:36;;;;;;;;;;;21.70;76.90;;;21.08;nan;96235.16;4975552;28;19922;-91
2023/07/13 02:14:04;;;;;;;;;;;21.70;77.00;;;21.08;nan;96237.94;4975863;28;19922;-90
2023/07/13 02:16:32;;;;;;;;;;;21.70;77.00;;;21.07;nan;96236.31;4975685;28;19922;-91
2023/07/13 02:19:00;;;;;;;;;;;21.70;77.00;;;21.08;nan;96236.00;4975953;28;19922;-91
2023/07/13 02:21:28;;;;;;;;;;;21.70;77.00;;;21.08;nan;96235.16;4975239;28;20213;-91
2023/07/13 02:23:57;;;;;;;;;;;21.80;76.90;;;21.06;nan;96231.88;4992002;28;19928;-91
2023/07/13 02:26:25;;;;;;;;;;;21.70;76.80;;;21.05;nan;96244.16;4975804;28;19921;-91
2023/07/13 02:28:53;;;;;;;;;;;21.70;76.70;;;21.03;nan;96247.31;5008138;28;19922;-91
2023/07/13 02:31:23;;;;;;;;;;;21.70;76.70;;;21.01;nan;96244.03;4975176;28;19985;-91
2023/07/13 02:33:50;;;;;;;;;;;21.70;76.70;;;21.02;nan;96250.44;4991239;28;19921;-90
2023/07/13 02:36:19;;;;;;;;;;;21.70;76.70;;;21.00;nan;96245.19;4975527;28;20206;-91
2023/07/13 02:38:47;;;;;;;;;;;21.70;76.60;;;20.99;nan;96244.38;4975672;28;19929;-91
2023/07/13 02:41:15;;;;;;;;;;;21.70;76.50;;;20.99;nan;96251.91;4975136;28;19922;-91
2023/07/13 02:43:43;;;;;;;;;;;21.60;76.40;;;20.98;nan;96253.06;4975451;28;19944;-91
2023/07/13 02:46:11;;;;;;;;;;;21.60;76.40;;;20.98;nan;96253.06;4975405;28;19921;-91
2023/07/13 02:48:40;;;;;;;;;;;21.60;76.40;;;20.99;nan;96261.09;4975492;28;19921;-90
2023/07/13 02:51:09;;;;;;;;;;;21.60;76.30;;;21.00;nan;96264.69;4974863;28;19952;-91
2023/07/13 02:53:37;;;;;;;;;;;21.60;76.30;;;20.98;nan;96261.41;4975401;28;20346;-91
2023/07/13 02:56:05;;;;;;;;;;;21.60;76.20;;;20.99;nan;96263.03;4975244;28;19922;-91
2023/07/13 02:58:36;;;;;;;;;;;21.60;76.20;;;20.97;nan;96266.16;4974895;28;19928;-91
2023/07/13 03:01:07;;;;;;;;;;;21.60;76.20;;;20.99;nan;96251.91;4994327;28;19922;-91
2023/07/13 03:03:35;;;;;;;;;;;21.60;76.20;;;20.98;nan;96250.28;5011064;28;19922;-90
2023/07/13 03:06:07;;;;;;;;;;;21.60;76.20;;;20.99;nan;96255.53;5010705;28;19922;-91
2023/07/13 03:08:43;;;;;;;;;;;21.60;76.20;;;20.99;nan;96254.69;4994704;28;19921;-91
2023/07/13 03:11:12;;;;;;;;;;;21.70;76.40;;;20.99;nan;96261.09;4994076;28;20227;-91
2023/07/13 03:13:42;;;;;;;;;;;21.60;76.20;;;20.98;nan;96258.63;4994628;28;19928;-91
2023/07/13 03:16:10;;;;;;;;;;;21.60;76.30;;;21.00;nan;96270.25;4994415;28;19922;-89
2023/07/13 03:18:38;;;;;;;;;;;21.70;76.40;;;20.99;nan;96252.75;5010751;28;19921;-91
2023/07/13 03:21:11;;;;;;;;;;;21.60;76.40;;;20.99;nan;96263.88;4976220;28;19928;-91
2023/07/13 03:23:40;;;;;;;;;;;21.60;76.40;;;20.99;nan;96255.53;4975122;28;20267;-91
2023/07/13 03:26:10;;;;;;;;;;;21.60;76.40;;;20.98;nan;96259.47;4975095;28;19922;-91
2023/07/13 03:28:40;;;;;;;;;;;21.60;76.40;;;20.98;nan;96259.47;4975263;28;19922;-91
2023/07/13 03:31:11;;;;;;;;;;;21.60;76.40;;;20.99;nan;96268.59;4991062;28;19944;-91
2023/07/13 03:33:39;;;;;;;;;;;21.60;76.40;;;20.98;nan;96266.97;4974906;28;19922;-91
2023/07/13 03:36:08;;;;;;;;;;;21.60;76.40;;;20.98;nan;96272.53;4974885;28;19928;-91
2023/07/13 03:38:37;;;;;;;;;;;21.60;76.40;;;20.98;nan;96272.53;4974484;28;20125;-91
2023/07/13 03:41:05;;;;;;;;;;;21.60;76.50;;;20.99;nan;96268.59;4974822;28;19922;-91
2023/07/13 03:43:33;;;;;;;;;;;21.60;76.50;;;20.96;nan;96264.53;4990516;28;20213;-91
2023/07/13 03:46:01;;;;;;;;;;;21.60;76.50;;;20.97;nan;96273.72;4992457;28;19922;-90
2023/07/13 03:48:29;;;;;;;;;;;21.60;76.60;;;20.97;nan;96270.94;4978166;28;19928;-91
2023/07/13 03:50:57;;;;;;;;;;;21.60;76.70;;;20.96;nan;96286.00;4978079;28;19981;-91
2023/07/13 03:53:26;;;;;;;;;;;21.60;76.70;;;20.96;nan;96280.44;4977739;28;19922;-91
2023/07/13 03:55:55;;;;;;;;;;;21.60;76.80;;;20.96;nan;96280.44;4977836;28;19948;-91
2023/07/13 03:58:29;;;;;;;;;;;21.60;76.80;;;20.97;nan;96288.44;4978053;28;20235;-91
2023/07/13 04:01:02;;;;;;;;;;;21.60;76.80;;;20.96;nan;96274.88;4977968;28;19921;-91
2023/07/13 04:03:32;;;;;;;;;;;21.60;76.80;;;20.96;nan;96286.00;4977553;28;20125;-91
2023/07/13 04:06:00;;;;;;;;;;;21.60;76.90;;;20.97;nan;96284.84;4994218;28;19921;-91
2023/07/13 04:08:29;;;;;;;;;;;21.60;77.00;;;20.96;nan;96272.09;4977815;28;20121;-91
2023/07/13 04:10:58;;;;;;;;;;;21.60;77.00;;;20.97;nan;96279.28;4977794;28;20094;-90
2023/07/13 04:13:26;;;;;;;;;;;21.60;77.10;;;20.98;nan;96280.88;4993405;28;19929;-91
2023/07/13 04:15:54;;;;;;;;;;;21.60;77.90;;;20.99;nan;96286.13;4977643;28;19928;-90
2023/07/13 04:18:22;;;;;;;;;;;21.60;77.10;;;21.00;nan;96287.78;4977889;28;19922;-91
2023/07/13 04:20:50;;;;;;;;;;;21.60;77.10;;;21.01;nan;96283.00;4977747;28;19929;-89
2023/07/13 04:23:18;;;;;;;;;;;21.70;77.10;;;21.02;nan;96290.22;4977137;28;19922;-91
2023/07/13 04:25:49;;;;;;;;;;;21.70;77.10;;;21.03;nan;96283.50;4976951;28;20124;-90
2023/07/13 04:28:18;;;;;;;;;;;21.70;77.10;;;21.03;nan;96291.84;4977531;28;20116;-90
2023/07/13 04:30:46;;;;;;;;;;;21.70;77.10;;;21.05;nan;96297.06;4977497;28;19944;-91
2023/07/13 04:33:14;;;;;;;;;;;21.70;77.20;;;21.06;nan;96295.91;4993180;28;19922;-90
2023/07/13 04:35:42;;;;;;;;;;;21.70;77.20;;;21.06;nan;96285.59;4977403;28;19921;-90
2023/07/13 04:38:12;;;;;;;;;;;21.70;77.20;;;21.06;nan;96280.03;4993560;28;19977;-91
2023/07/13 04:40:40;;;;;;;;;;;21.70;78.00;;;21.08;nan;96277.75;4977425;28;19928;-90
2023/07/13 04:43:08;;;;;;;;;;;21.70;77.20;;;21.09;nan;96282.16;4976889;28;19944;-90
2023/07/13 04:45:37;;;;;;;;;;;21.70;78.00;;;21.09;nan;96282.16;4993538;28;19932;-91
2023/07/13 04:48:06;;;;;;;;;;;21.70;77.30;;;21.10;nan;96278.22;4977209;28;19921;-90
2023/07/13 04:50:34;;;;;;;;;;;21.80;77.40;;;21.10;nan;96281.00;4978517;28;19928;-90
2023/07/13 04:53:02;;;;;;;;;;;21.80;77.40;;;21.10;nan;96281.00;4995849;28;20217;-90
2023/07/13 04:55:30;;;;;;;;;;;21.80;77.80;;;21.12;nan;96287.03;4996495;28;19927;-90
2023/07/13 04:57:59;;;;;;;;;;;21.80;77.80;;;21.12;nan;96284.25;4995702;28;19928;-91
2023/07/13 05:00:27;;;;;;;;;;;21.80;77.90;;;21.13;nan;96277.53;4996357;28;20209;-90
2023/07/13 05:02:57;;;;;;;;;;;21.80;77.80;;;21.15;nan;96280.78;4995829;28;19922;-91
2023/07/13 05:05:25;;;;;;;;;;;21.80;77.80;;;21.16;nan;96284.41;4996250;28;19928;-90
2023/07/13 05:07:53;;;;;;;;;;;21.80;78.10;;;21.18;nan;96287.63;4996395;28;19928;-90
2023/07/13 05:10:21;;;;;;;;;;;21.80;78.40;;;21.23;nan;96289.44;4996202;28;19928;-90
2023/07/13 05:12:49;;;;;;;;;;;21.80;78.40;;;21.27;nan;96284.81;4995862;28;20098;-90
2023/07/13 05:15:20;;;;;;;;;;;21.90;78.30;;;21.32;nan;96290.19;5012351;28;20209;-89
2023/07/13 05:17:48;;;;;;;;;;;21.90;78.80;;;21.36;nan;96291.16;4996426;28;19921;-89
2023/07/13 05:20:18;;;;;;;;;;;21.90;78.50;;;21.39;nan;96298.81;4996226;28;19928;-90
2023/07/13 05:22:46;;;;;;;;;;;22.00;78.60;;;21.42;nan;96305.69;5011706;28;20120;-90
2023/07/13 05:25:14;;;;;;;;;;;22.00;78.60;;;21.44;nan;96298.63;4995908;28;20132;-90
2023/07/13 05:27:45;;;;;;;;;;;22.00;78.70;;;21.45;nan;96294.66;5012480;28;19922;-90
2023/07/13 05:30:13;;;;;;;;;;;22.00;78.80;;;21.50;nan;96295.59;4995938;28;19929;-90
2023/07/13 05:32:41;;;;;;;;;;;22.10;79.10;;;21.54;nan;96302.13;4995283;28;19928;-89
2023/07/13 05:35:10;;;;;;;;;;;22.10;78.90;;;21.58;nan;96306.69;4995582;28;19928;-90
2023/07/13 05:37:39;;;;;;;;;;;22.10;78.90;;;21.60;nan;96306.41;4995780;28;20125;-89
2023/07/13 05:40:08;;;;;;;;;;;22.20;79.10;;;21.63;nan;96314.03;4995664;28;19921;-89
2023/07/13 05:42:36;;;;;;;;;;;22.20;79.00;;;21.66;nan;96316.16;4995188;28;19922;-90
2023/07/13 05:45:05;;;;;;;;;;;22.20;78.70;;;21.67;nan;96315.00;4995670;28;19921;-89
2023/07/13 05:47:33;;;;;;;;;;;22.30;78.10;;;21.71;nan;96318.75;5011844;28;19921;-89
2023/07/13 05:50:00;;;;;;;;;;;22.30;77.90;;;21.77;nan;96314.59;4995542;28;19922;-89
2023/07/13 05:52:28;;;;;;;;;;;22.40;78.00;;;21.79;nan;96310.66;4994847;28;20121;-89
2023/07/13 05:54:58;;;;;;;;;;;22.40;77.90;;;21.84;nan;96311.25;4995292;28;20144;-90
2023/07/13 05:57:26;;;;;;;;;;;22.40;78.10;;;21.86;nan;96310.94;5011530;28;19927;-90
2023/07/13 05:59:54;;;;;;;;;;;22.50;78.20;;;21.93;nan;96311.19;4995324;28;19922;-89
2023/07/13 06:02:21;;;;;;;;;;;22.50;77.80;;;21.98;nan;96312.94;5010918;28;19921;-89
2023/07/13 06:04:49;;;;;;;;;;;22.50;77.40;;;22.01;nan;96313.06;5011514;28;19936;-88
2023/07/13 06:07:17;;;;;;;;;;;22.60;77.20;;;22.08;nan;96309.72;5012440;28;20101;-88
2023/07/13 06:09:45;;;;;;;;;;;22.70;76.90;;;22.13;nan;96314.28;4995181;28;19922;-89
2023/07/13 06:12:15;;;;;;;;;;;22.70;76.70;;;22.18;nan;96309.31;4994610;28;19921;-88
2023/07/13 06:14:42;;;;;;;;;;;22.80;76.80;;;22.22;nan;96304.66;4995174;28;19944;-89
2023/07/13 06:17:10;;;;;;;;;;;22.80;76.50;;;22.28;nan;96299.66;4994868;28;19944;-89
2023/07/13 06:19:38;;;;;;;;;;;22.90;76.40;;;22.30;nan;96297.34;4994984;28;19927;-89
2023/07/13 06:22:06;;;;;;;;;;;22.90;76.60;;;22.35;nan;96294.34;5010695;28;20116;-88
2023/07/13 06:24:34;;;;;;;;;;;22.90;76.10;;;22.41;nan;96288.53;5011256;28;19928;-89
2023/07/13 06:27:02;;;;;;;;;;;23.00;76.10;;;22.42;nan;96293.81;4995084;28;19921;-89
2023/07/13 06:29:32;;;;;;;;;;;23.00;76.00;;;22.44;nan;96294.28;4994890;28;19928;-88
2023/07/13 06:32:00;;;;;;;;;;;23.10;75.80;;;22.47;nan;96298.34;4994174;28;19921;-88
2023/07/13 06:34:28;;;;;;;;;;;23.10;75.80;;;22.49;nan;96284.88;5011169;28;19928;-88
2023/07/13 06:36:56;;;;;;;;;;;23.10;75.80;;;22.51;nan;96276.97;4994640;28;19943;-87
2023/07/13 06:39:24;;;;;;;;;;;23.10;75.80;;;22.54;nan;96287.44;4994811;28;19943;-88
2023/07/13 06:41:52;;;;;;;;;;;23.10;75.80;;;22.55;nan;96299.41;5010374;28;19928;-88
2023/07/13 06:44:19;;;;;;;;;;;23.20;75.70;;;22.57;nan;96297.09;4994550;28;19921;-88
2023/07/13 06:46:49;;;;;;;;;;;23.20;75.80;;;22.60;nan;96293.59;5011870;28;19928;-88
2023/07/13 06:49:17;;;;;;;;;;;23.20;76.00;;;22.63;nan;96293.75;4994525;28;19928;-87
2023/07/13 06:51:47;;;;;;;;;;;23.20;75.80;;;22.66;nan;96284.66;5009353;28;20823;-87
2023/07/13 06:54:15;;;;;;;;;;;23.20;75.60;;;22.72;nan;96285.22;4994464;28;19922;-87
2023/07/13 06:56:42;;;;;;;;;;;23.20;75.80;;;22.75;nan;96283.75;5011761;28;19921;-87
2023/07/13 06:59:10;;;;;;;;;;;23.30;75.70;;;22.79;nan;96287.44;4994560;28;19928;-87
2023/07/13 07:01:38;;;;;;;;;;;23.30;75.80;;;22.83;nan;96285.59;4993585;28;19928;-87
2023/07/13 07:04:08;;;;;;;;;;;23.30;75.40;;;22.86;nan;96270.94;5010700;28;19928;-87
2023/07/13 07:06:36;;;;;;;;;;;23.40;75.20;;;22.88;nan;96288.16;4994039;28;19928;-86
2023/07/13 07:09:04;;;;;;;;;;;23.40;75.20;;;22.92;nan;96283.50;5010528;28;19961;-87
2023/07/13 07:11:32;;;;;;;;;;;23.40;75.30;;;22.94;nan;96291.53;4993844;28;19936;-86
2023/07/13 07:14:00;;;;;;;;;;;23.40;75.00;;;22.94;nan;96281.16;5011673;28;19928;-87
2023/07/13 07:16:27;;;;;;;;;;;23.50;75.20;;;22.97;nan;96276.88;4993958;28;19921;-87
2023/07/13 07:18:55;;;;;;;;;;;23.50;75.20;;;22.98;nan;96276.53;4994121;28;19928;-86
2023/07/13 07:21:25;;;;;;;;;;;23.50;75.20;;;22.99;nan;96275.38;5012332;28;19928;-86
2023/07/13 07:23:53;;;;;;;;;;;23.50;75.40;;;23.01;nan;96272.22;5013433;28;19922;-87
2023/07/13 07:26:21;;;;;;;;;;;23.50;75.60;;;23.03;nan;96271.88;5013666;28;19922;-85
2023/07/13 07:28:49;;;;;;;;;;;23.60;75.70;;;23.04;nan;96268.72;4990723;28;19922;-85
2023/07/13 07:31:17;;;;;;;;;;;23.60;75.70;;;23.07;nan;96267.19;4977925;28;19928;-85
2023/07/13 07:33:45;;;;;;;;;;;23.60;75.50;;;23.06;nan;96282.31;4977316;28;20117;-85
2023/07/13 07:36:40;;;;;;;;;;;23.60;75.50;;;23.09;nan;96285.25;4977940;28;19928;-85
2023/07/13 07:39:09;;;;;;;;;;;23.60;75.90;;;23.11;nan;96282.09;4995102;28;19928;-86
2023/07/13 07:41:37;;;;;;;;;;;23.60;75.60;;;23.11;nan;96296.84;4977281;28;19944;-85
2023/07/13 07:44:07;;;;;;;;;;;23.70;75.50;;;23.13;nan;96293.72;4994213;28;19928;-87
2023/07/13 07:46:35;;;;;;;;;;;23.70;76.00;;;23.14;nan;96295.38;4994928;28;19921;-87
2023/07/13 07:49:03;;;;;;;;;;;23.70;75.80;;;23.14;nan;96289.78;5010172;28;19930;-87
2023/07/13 07:51:31;;;;;;;;;;;23.70;75.90;;;23.16;nan;96303.38;4993719;28;19922;-87
2023/07/13 07:54:01;;;;;;;;;;;23.70;75.90;;;23.15;nan;96308.16;4993403;28;20141;-87
2023/07/13 07:56:29;;;;;;;;;;;23.70;76.00;;;23.13;nan;96305.69;4977362;28;19922;-87
2023/07/13 07:58:57;;;;;;;;;;;23.70;76.10;;;23.11;nan;96307.22;4977275;28;19928;-87
2023/07/13 08:01:27;;;;;;;;;;;23.70;75.90;;;23.08;nan;96308.75;4977572;28;19928;-87
2023/07/13 08:03:55;;;;;;;;;;;23.70;76.20;;;23.04;nan;96301.44;4979534;28;21270;-87
2023/07/13 08:06:24;;;;;;;;;;;23.70;76.40;;;23.03;nan;96299.78;4996913;28;19928;-87
2023/07/13 08:08:51;;;;;;;;;;;23.60;76.60;;;23.03;nan;96294.22;4996818;28;19921;-87
2023/07/13 08:11:21;;;;;;;;;;;23.70;76.80;;;23.03;nan;96283.84;4996899;28;20098;-87
2023/07/13 08:13:50;;;;;;;;;;;23.60;76.40;;;23.04;nan;96279.09;4995994;28;20125;-87
2023/07/13 08:16:18;;;;;;;;;;;23.60;76.10;;;23.07;nan;96278.38;5013024;28;19921;-87
2023/07/13 08:18:46;;;;;;;;;;;23.60;76.70;;;23.08;nan;96272.44;5013975;28;19921;-87
2023/07/13 08:21:14;;;;;;;;;;;23.70;76.50;;;23.10;nan;96272.91;4996719;28;19922;-88
2023/07/13 08:23:42;;;;;;;;;;;23.70;77.60;;;23.11;nan;96280.09;4995794;28;19922;-88
2023/07/13 08:26:10;;;;;;;;;;;23.70;77.50;;;23.16;nan;96284.66;4996198;28;19929;-88
2023/07/13 08:28:39;;;;;;;;;;;23.70;78.40;;;23.18;nan;96296.28;4996406;28;19922;-87
2023/07/13 08:31:08;;;;;;;;;;;23.70;77.70;;;23.19;nan;96303.50;5013036;28;19921;-88
2023/07/13 08:33:36;;;;;;;;;;;23.80;77.10;;;23.21;nan;96306.78;5012384;28;19931;-88
2023/07/13 08:36:06;;;;;;;;;;;23.80;77.70;;;23.22;nan;96302.03;5014005;28;19922;-87
2023/07/13 08:38:34;;;;;;;;;;;23.80;77.80;;;23.23;nan;96298.06;5012906;28;19921;-88
2023/07/13 08:41:04;;;;;;;;;;;23.80;77.50;;;23.23;nan;96284.91;4996660;28;20235;-88
2023/07/13 08:43:34;;;;;;;;;;;23.80;77.90;;;23.23;nan;96287.69;4996000;28;19921;-88
2023/07/13 08:46:07;;;;;;;;;;;23.80;78.10;;;23.26;nan;96287.00;5012526;28;19928;-88
2023/07/13 08:48:37;;;;;;;;;;;23.90;78.10;;;23.28;nan;96293.06;5012548;28;19928;-88
2023/07/13 08:51:32;;;;;;;;;;;23.90;78.80;;;23.31;nan;96301.88;4996332;28;20113;-88
2023/07/13 08:54:01;;;;;;;;;;;23.90;79.00;;;23.32;nan;96297.91;5002767;28;19922;-88
2023/07/13 08:56:30;;;;;;;;;;;23.90;78.20;;;23.32;nan;96284.78;5009627;28;19927;-88
2023/07/13 08:59:39;;;;;;;;;;;23.90;78.40;;;23.33;nan;96299.53;4992304;28;19922;-88
2023/07/13 09:05:35;;;;;;;;;;;23.90;76.40;;;23.28;nan;96293.06;4972472;28;19922;-88
2023/07/13 09:08:10;;;;;;;;;;;23.90;76.00;;;23.27;nan;96283.03;4957545;28;19943;-88
2023/07/13 09:10:41;;;;;;;;;;;23.90;75.90;;;23.23;nan;96276.53;4951878;28;19922;-88
2023/07/13 09:13:27;;;;;;;;;;;23.90;75.60;;;23.22;nan;96262.91;4955617;28;19937;-86
2023/07/13 09:15:55;;;;;;;;;;;23.90;76.10;;;23.21;nan;96250.13;4956224;28;19928;-86
2023/07/13 09:18:27;;;;;;;;;;;23.80;76.10;;;23.20;nan;96243.72;4956298;28;19923;-86
2023/07/13 09:20:56;;;;;;;;;;;23.80;76.50;;;23.21;nan;96248.13;4989677;28;19922;-86
2023/07/13 09:23:25;;;;;;;;;;;23.80;77.10;;;23.21;nan;96239.75;4991765;28;19922;-86
2023/07/13 09:25:55;;;;;;;;;;;23.80;77.10;;;23.22;nan;96246.16;4976359;28;20126;-86
2023/07/13 09:28:24;;;;;;;;;;;23.80;76.40;;;23.22;nan;96252.56;4976084;28;19922;-85
2023/07/13 09:30:53;;;;;;;;;;;23.80;77.10;;;23.22;nan;96252.56;4999369;28;19922;-86
2023/07/13 09:33:22;;;;;;;;;;;23.80;76.50;;;23.22;nan;96255.34;5011091;28;19922;-86
2023/07/13 09:35:51;;;;;;;;;;;23.80;76.40;;;23.23;nan;96248.59;4995454;28;19921;-85
2023/07/13 09:38:20;;;;;;;;;;;23.80;76.40;;;23.25;nan;96254.66;5011546;28;19921;-85
2023/07/13 09:40:54;;;;;;;;;;;23.90;77.20;;;23.27;nan;96255.09;5028366;28;20574;-86
2023/07/13 09:43:22;;;;;;;;;;;23.90;76.90;;;23.26;nan;96259.06;4994685;28;19932;-86
2023/07/13 09:45:50;;;;;;;;;;;23.90;76.50;;;23.25;nan;96257.44;5012511;28;19928;-85
2023/07/13 09:48:18;;;;;;;;;;;23.90;75.60;;;23.26;nan;96259.06;5014322;28;20135;-88
2023/07/13 09:50:46;;;;;;;;;;;23.90;75.60;;;23.24;nan;96266.97;5013037;28;19922;-85
2023/07/13 09:53:17;;;;;;;;;;;23.90;75.40;;;23.22;nan;96258.13;5012142;28;19921;-86
2023/07/13 09:55:46;;;;;;;;;;;23.90;75.40;;;23.22;nan;96263.72;4996034;28;19928;-87
2023/07/13 09:58:17;;;;;;;;;;;23.80;75.40;;;23.21;nan;96255.72;4996504;28;20213;-87
2023/07/13 10:00:54;;;;;;;;;;;23.80;76.30;;;23.21;nan;96253.72;5011630;28;20231;-87
2023/07/13 10:03:24;;;;;;;;;;;23.80;76.20;;;23.24;nan;96263.34;4994481;28;19928;-86
2023/07/13 10:05:52;;;;;;;;;;;23.80;76.00;;;23.21;nan;96262.09;5011463;28;19928;-86
2023/07/13 10:08:23;;;;;;;;;;;23.80;75.60;;;23.22;nan;96265.72;5011346;28;19921;-86
2023/07/13 10:10:58;;;;;;;;;;;23.80;75.70;;;23.19;nan;96258.81;5012443;28;19927;-86
2023/07/13 10:13:32;;;;;;;;;;;23.80;75.60;;;23.20;nan;96260.47;4994442;28;19928;-86
2023/07/13 10:16:00;;;;;;;;;;;23.80;75.70;;;23.19;nan;96246.84;5027502;28;19928;-86
2023/07/13 10:18:28;;;;;;;;;;;23.80;76.20;;;23.18;nan;96250.78;5011276;28;19921;-87
2023/07/13 10:20:56;;;;;;;;;;;23.80;75.90;;;23.18;nan;96248.78;5011077;28;19921;-86
2023/07/13 10:23:25;;;;;;;;;;;23.80;75.60;;;23.17;nan;96250.00;4994275;28;20124;-86
2023/07/13 10:25:53;;;;;;;;;;;23.80;75.60;;;23.16;nan;96244.72;4994740;28;19921;-86
2023/07/13 10:28:26;;;;;;;;;;;23.80;75.60;;;23.15;nan;96252.31;5011139;28;19921;-86
2023/07/13 10:30:56;;;;;;;;;;;23.80;75.40;;;23.14;nan;96247.88;4994697;28;20094;-87
2023/07/13 10:33:24;;;;;;;;;;;23.80;75.50;;;23.13;nan;96238.69;5010228;28;19928;-87
2023/07/13 10:35:53;;;;;;;;;;;23.80;75.60;;;23.12;nan;96237.06;4994633;28;19921;-87
2023/07/13 10:38:23;;;;;;;;;;;23.70;76.70;;;23.13;nan;96235.09;5011980;28;19921;-87
2023/07/13 10:40:55;;;;;;;;;;;23.80;77.20;;;23.16;nan;96228.81;4994741;28;19922;-87
2023/07/13 10:43:26;;;;;;;;;;;23.80;76.70;;;23.16;nan;96226.03;4994173;28;19928;-86
2023/07/13 10:45:54;;;;;;;;;;;23.80;77.40;;;23.17;nan;96224.03;4994460;28;20116;-86
2023/07/13 10:48:22;;;;;;;;;;;23.80;77.00;;;23.15;nan;96218.81;4994512;28;19928;-87
2023/07/13 10:50:52;;;;;;;;;;;23.80;76.70;;;23.17;nan;96213.69;4994415;28;19922;-86
2023/07/13 10:53:21;;;;;;;;;;;23.80;77.40;;;23.21;nan;96219.41;4994135;28;19922;-87
2023/07/13 10:56:00;;;;;;;;;;;23.80;76.80;;;23.22;nan;96218.25;4993428;28;19922;-87
2023/07/13 10:58:33;;;;;;;;;;;23.80;76.80;;;23.22;nan;96219.03;4994372;28;19928;-87
2023/07/13 11:01:07;;;;;;;;;;;23.80;76.40;;;23.23;nan;96212.28;4994404;28;19922;-86
2023/07/13 11:03:36;;;;;;;;;;;23.80;76.80;;;23.23;nan;96209.50;5026568;28;19921;-87
2023/07/13 11:06:13;;;;;;;;;;;23.80;76.10;;;23.24;nan;96207.50;4994073;28;19928;-87
2023/07/13 11:08:53;;;;;;;;;;;23.90;76.10;;;23.23;nan;96198.31;4993838;28;19922;-87
2023/07/13 11:11:38;;;;;;;;;;;23.80;76.40;;;23.23;nan;96192.75;4994376;28;19926;-88
2023/07/13 11:14:07;;;;;;;;;;;23.80;76.00;;;23.23;nan;96189.16;5009747;28;19921;-86
2023/07/13 11:16:44;;;;;;;;;;;23.90;76.20;;;23.22;nan;96181.94;4994099;28;19989;-87
2023/07/13 11:19:48;;;;;;;;;;;23.80;75.70;;;23.21;nan;96178.31;4994107;28;19928;-87
2023/07/13 11:22:22;;;;;;;;;;;23.80;76.50;;;23.20;nan;96171.09;5009948;28;19929;-87
2023/07/13 11:25:00;;;;;;;;;;;23.80;76.20;;;23.19;nan;96175.03;4994078;28;19928;-87
2023/07/13 11:27:41;;;;;;;;;;;23.80;75.90;;;23.20;nan;96170.28;5010402;28;19922;-87
2023/07/13 11:30:25;;;;;;;;;;;23.80;75.80;;;23.18;nan;96162.22;4993972;28;19935;-87
2023/07/13 11:33:05;;;;;;;;;;;23.80;76.00;;;23.16;nan;96164.59;4993415;28;19922;-87
2023/07/13 11:35:34;;;;;;;;;;;23.80;75.90;;;23.18;nan;96164.22;5009988;28;19927;-88
2023/07/13 11:38:02;;;;;;;;;;;23.80;75.80;;;23.15;nan;96168.53;4993839;28;19921;-87
2023/07/13 11:40:30;;;;;;;;;;;23.80;75.80;;;23.17;nan;96169.00;4993836;28;19921;-87
2023/07/13 11:43:02;;;;;;;;;;;23.80;75.80;;;23.16;nan;96172.13;4993321;28;19921;-87
2023/07/13 11:45:31;;;;;;;;;;;23.80;75.90;;;23.15;nan;96171.31;4993683;28;19932;-87
2023/07/13 11:48:00;;;;;;;;;;;23.80;76.00;;;23.16;nan;96184.13;5010212;28;19944;-87
2023/07/13 11:50:28;;;;;;;;;;;23.80;76.00;;;23.15;nan;96190.88;5011262;28;20234;-87